WetterOnline ( https://www.wetteronline.de )

Wetter aktuell Fehmarn

Aktuelles Wetter: Westermarkelsdorf (9m)

6-stündlich | Neueste Meldungen
Ortszeit Temperatur Wetter
Sa, 02.07. 14:00 21.4° C wolkenlos
Sa, 02.07. 8:00 17.3° C wolkenlos
Sa, 02.07. 2:00 16.7° C wolkig
Fr, 01.07. 20:00 18.0° C bedeckt
Fr, 01.07. 14:00 17.6° C bedeckt
Fr, 01.07. 8:00 17.5° C leichter Regen
Fr, 01.07. 2:00 17.8° C leicht bewölkt
Do, 30.06. 20:00 20.2° C wolkenlos
Ortszeit Temperatur Wetter
Sa, 02.07. 16:00 21.3° C leicht bewölkt
Sa, 02.07. 15:40 21.7° C leicht bewölkt
Sa, 02.07. 15:30 20.8° C leicht bewölkt
Sa, 02.07. 15:20 20.8° C leicht bewölkt
Sa, 02.07. 15:10 21.7° C wolkenlos
Sa, 02.07. 15:00 21.7° C fast wolkenlos
Sa, 02.07. 14:50 21.7° C fast wolkenlos
Sa, 02.07. 14:30 21.6° C wolkenlos
Sa, 02.07. 14:00 21.4° C wolkenlos
Sa, 02.07. 13:30 21.5° C leicht bewölkt
Sa, 02.07. 13:00 21.1° C wolkenlos
Ortszeit Relative Feuchte Sichtweite
Sa, 02.07. 14:00 54% 65 km
Sa, 02.07. 8:00 79% 45 km
Sa, 02.07. 2:00 74% 55 km
Fr, 01.07. 20:00 75% 50 km
Fr, 01.07. 14:00 86% 50 km
Fr, 01.07. 8:00 98% 13 km
Fr, 01.07. 2:00 96% 16 km
Do, 30.06. 20:00 80% 45 km
Ortszeit Relative Feuchte Sichtweite
Sa, 02.07. 16:00 58% >70 km
Sa, 02.07. 15:40 56% -
Sa, 02.07. 15:30 59% 55 km
Sa, 02.07. 15:20 59% -
Sa, 02.07. 15:10 52% -
Sa, 02.07. 15:00 49% 60 km
Sa, 02.07. 14:50 49% -
Sa, 02.07. 14:30 52% >70 km
Sa, 02.07. 14:00 54% 65 km
Sa, 02.07. 13:30 55% >70 km
Sa, 02.07. 13:00 56% 60 km
Ortszeit Niederschlagsmenge Niederschlagsart
Sa, 02.07. 14:00 0.0 l/m2 in 6 Std. -
Sa, 02.07. 8:00 0.1 l/m2 in 12 Std. -
Sa, 02.07. 2:00 0.1 l/m2 in 6 Std. Regen
Fr, 01.07. 20:00 17 l/m2 in 12 Std. Regen
Fr, 01.07. 14:00 11 l/m2 in 6 Std. Regen
Fr, 01.07. 8:00 8 l/m2 in 12 Std. Regen
Fr, 01.07. 2:00 0.0 l/m2 in 6 Std. -
Do, 30.06. 20:00 0.0 l/m2 in 12 Std. -
Ortszeit Niederschlagsmenge Niederschlagsart
Sa, 02.07. 16:00 0.0 l/m2 in 1 Std. -
Sa, 02.07. 15:40 keine Meldung -
Sa, 02.07. 15:30 0.0 l/m2 in 1 Std. -
Sa, 02.07. 15:20 keine Meldung -
Sa, 02.07. 15:10 keine Meldung -
Sa, 02.07. 15:00 0.0 l/m2 in 1 Std. -
Sa, 02.07. 14:50 keine Meldung -
Sa, 02.07. 14:30 0.0 l/m2 in 1 Std. -
Sa, 02.07. 14:00 0.0 l/m2 in 1 Std. -
Sa, 02.07. 13:30 0.0 l/m2 in 1 Std. -
Sa, 02.07. 13:00 0.0 l/m2 in 1 Std. -
Ortszeit Stärke Spitze Richtung
km/h Bft. km/h Grad Sektor
Sa, 02.07. 14:00 14 3 32 250° W
Sa, 02.07. 8:00 11 2 36 210° SW
Sa, 02.07. 2:00 26 4 39 250° W
Fr, 01.07. 20:00 33 5 50 270° W
Fr, 01.07. 14:00 32 5 47 270° W
Fr, 01.07. 8:00 11 2 25 260° W
Fr, 01.07. 2:00 14 3 32 110° O
Do, 30.06. 20:00 22 4 35 90° O
Ortszeit Stärke Spitze Richtung
km/h Bft. km/h Grad Sektor
Sa, 02.07. 16:00 13 3 20 260° W
Sa, 02.07. 15:40 11 2 - 260° W
Sa, 02.07. 15:30 13 3 20 260° W
Sa, 02.07. 15:20 13 3 - 260° W
Sa, 02.07. 15:10 14 3 - 250° W
Sa, 02.07. 15:00 14 3 22 250° W
Sa, 02.07. 14:50 14 3 - 250° W
Sa, 02.07. 14:30 15 3 22 240° SW
Sa, 02.07. 14:00 14 3 29 250° W
Sa, 02.07. 13:30 19 3 26 240° SW
Sa, 02.07. 13:00 14 3 29 240° SW
Ortszeit Untergrenze Bedeckung Gattung
total tief tief mittel hoch
Sa, 02.07. 14:00 - 0/8 0/8 - - -
Sa, 02.07. 8:00 - 0/8 0/8 - - -
Sa, 02.07. 2:00 2700 m 8/8 1/8 - - -
Fr, 01.07. 20:00 2400 m 8/8 8/8 - - -
Fr, 01.07. 14:00 480 m 8/8 8/8 - - -
Fr, 01.07. 8:00 60 m 7/8 4/8 - - -
Fr, 01.07. 2:00 10500 m 6/8 0/8 - - -
Do, 30.06. 20:00 - 0/8 0/8 - - -
Ortszeit Bedeckungsgrad in Achtel und Wolkenuntergrenze
Sa, 02.07. 16:00 3(2100m) 5(7800m)
Sa, 02.07. 15:40 4
Sa, 02.07. 15:30 4(2100m)
Sa, 02.07. 15:20 4(2100m)
Sa, 02.07. 15:10 keine Wolken
Sa, 02.07. 15:00 1(7800m)
Sa, 02.07. 14:50 1(7800m)
Sa, 02.07. 14:30 keine Wolken
Sa, 02.07. 14:00 keine Wolken
Sa, 02.07. 13:30 4(8400m)
Sa, 02.07. 13:00 keine Wolken
Ortszeit Luftdruck NN (hPa) Tendenz (hPa in 3 Std.)
Sa, 02.07. 14:00 1023 - 0,1
Sa, 02.07. 8:00 1022 + 1,2
Sa, 02.07. 2:00 1020 + 0,6
Fr, 01.07. 20:00 1017 + 1,0
Fr, 01.07. 14:00 1015 + 2,2
Fr, 01.07. 8:00 1012 + 0,2
Fr, 01.07. 2:00 1012 - 0,1
Do, 30.06. 20:00 1013 - 1,0
Ortszeit Luftdruck NN (hPa) Tendenz (hPa in 3 Std.)
Sa, 02.07. 16:00 1022 - 0,5
Sa, 02.07. 15:40 1022 keine Meldung
Sa, 02.07. 15:30 1022 - 0,6
Sa, 02.07. 15:20 1022 keine Meldung
Sa, 02.07. 15:10 1022 keine Meldung
Sa, 02.07. 15:00 1022 - 0,4
Sa, 02.07. 14:50 1022 keine Meldung
Sa, 02.07. 14:30 1022 - 0,3
Sa, 02.07. 14:00 1023 - 0,1
Sa, 02.07. 13:30 1023 + 0,2
Sa, 02.07. 13:00 1023 + 0,3
Ortszeit Schneehöhe (cm)
Sa, 02.07. 14:00 0
Sa, 02.07. 8:00 0
Sa, 02.07. 2:00 0
Fr, 01.07. 20:00 0
Fr, 01.07. 14:00 0
Fr, 01.07. 8:00 0
Fr, 01.07. 2:00 0
Do, 30.06. 20:00 0
Ortszeit Schneehöhe (cm)
Sa, 02.07. 16:00 0
Sa, 02.07. 15:40 0
Sa, 02.07. 15:30 0
Sa, 02.07. 15:20 0
Sa, 02.07. 15:10 0
Sa, 02.07. 15:00 0
Sa, 02.07. 14:50 0
Sa, 02.07. 14:30 0
Sa, 02.07. 14:00 0
Sa, 02.07. 13:30 0
Sa, 02.07. 13:00 0
Link zu dieser Seite / Seite empfehlen

Das Wetter in ...